Time;durP1;ratioP1;P1;durP2;ratioP2;P2;SDS_P1;SDS_P2;PMS_P1;PMS_P2;Temp;Humidity;BMP_temperature;BMP_pressure;BME280_temperature;BME280_humidity;BME280_pressure;Samples;Min_cycle;Max_cycle;Signal;HPM_P1;HPM_P2
2021/07/04 05:01:11;;;;;;;5.03;4.47;;;;;;;21.59;62.88;94564.00;5698903;23;20120;-74
2021/07/04 05:03:37;;;;;;;4.57;4.28;;;;;;;23.42;59.80;94564.28;4924031;29;20517;-75
2021/07/04 05:06:02;;;;;;;4.35;3.60;;;;;;;23.41;58.68;94560.03;4898590;29;20489;-75
2021/07/04 05:08:29;;;;;;;4.35;3.70;;;;;;;22.06;60.10;94569.47;4911945;29;20071;-75
2021/07/04 05:10:54;;;;;;;3.80;3.53;;;;;;;22.75;58.92;94562.38;4929364;29;20059;-74
2021/07/04 05:13:20;;;;;;;4.90;3.78;;;;;;;23.90;56.92;94563.06;4912395;29;20497;-75
2021/07/04 05:15:45;;;;;;;4.00;3.70;;;;;;;21.94;61.08;94560.94;4929870;29;20521;-74
2021/07/04 05:18:11;;;;;;;4.57;4.18;;;;;;;24.15;55.82;94560.47;4913547;29;20039;-74
2021/07/04 05:20:36;;;;;;;4.10;3.80;;;;;;;24.32;54.51;94557.56;4897355;29;20112;-74
2021/07/04 05:23:02;;;;;;;35.60;6.18;;;;;;;26.73;49.05;94560.94;4913501;29;20039;-74
2021/07/04 05:25:27;;;;;;;5.55;4.80;;;;;;;25.91;51.48;94574.34;4896668;29;20085;-74
2021/07/04 05:27:52;;;;;;;8.10;5.25;;;;;;;25.90;49.46;94564.78;4913872;29;20027;-73
2021/07/04 05:30:18;;;;;;;4.53;4.13;;;;;;;26.59;49.14;94567.19;4911414;29;20409;-74
2021/07/04 05:32:43;;;;;;;4.38;4.03;;;;;;;28.55;46.04;94573.81;4913578;29;20032;-74
2021/07/04 05:35:10;;;;;;;4.50;4.20;;;;;;;28.42;46.66;94574.56;4911950;29;20032;-76
2021/07/04 05:37:35;;;;;;;3.67;3.42;;;;;;;29.16;44.14;94571.66;4913525;29;20038;-74
2021/07/04 05:40:03;;;;;;;4.45;2.90;;;;;;;29.97;42.34;94569.25;4912651;29;20103;-76
2021/07/04 05:42:30;;;;;;;3.53;2.95;;;;;;;30.72;40.92;94578.22;4897531;29;20059;-76
2021/07/04 05:44:56;;;;;;;2.95;2.58;;;;;;;30.78;40.94;94574.31;4913016;29;20031;-77
2021/07/04 05:47:21;;;;;;;2.80;2.60;;;;;;;31.09;40.00;94566.28;4928774;29;20708;-76
2021/07/04 05:49:47;;;;;;;4.32;2.83;;;;;;;31.28;39.37;94560.69;4897399;29;20023;-76
2021/07/04 05:52:12;;;;;;;4.10;2.55;;;;;;;31.78;39.14;94575.38;4911898;29;20390;-76
2021/07/04 05:54:38;;;;;;;3.22;3.03;;;;;;;31.34;38.13;94564.78;4897177;29;20032;-77
2021/07/04 05:57:06;;;;;;;4.63;2.70;;;;;;;31.41;39.75;94567.81;4912469;29;20075;-75
2021/07/04 05:59:35;;;;;;;3.03;2.40;;;;;;;32.87;37.73;94579.47;4911010;29;20036;-76
2021/07/04 06:02:00;;;;;;;;;;;;;;;31.01;40.53;94566.25;4930523;29;20055;-76
2021/07/04 06:04:26;;;;;;;2.90;2.70;;;;;;;32.54;37.94;94566.88;4927985;29;19915;-76
2021/07/04 06:06:52;;;;;;;3.20;2.63;;;;;;;30.37;40.89;94572.91;4930272;29;20457;-75
2021/07/04 06:09:18;;;;;;;2.60;2.40;;;;;;;32.82;37.39;94566.22;4927933;29;20098;-77
2021/07/04 06:11:43;;;;;;;2.53;2.33;;;;;;;32.12;38.14;94563.09;4930307;29;20032;-75
2021/07/04 06:14:09;;;;;;;3.13;2.75;;;;;;;32.07;38.75;94560.59;4911321;29;20108;-75
2021/07/04 06:16:34;;;;;;;3.00;2.80;;;;;;;31.76;38.65;94555.31;4928592;29;20477;-76
2021/07/04 06:19:00;;;;;;;3.08;2.88;;;;;;;31.33;39.39;94565.91;4912241;29;20027;-74
2021/07/04 06:21:25;;;;;;;2.97;2.78;;;;;;;31.72;37.86;94554.38;4911836;29;20408;-73
2021/07/04 06:23:51;;;;;;;3.17;2.97;;;;;;;30.33;41.08;94557.47;4913207;29;20028;-75
2021/07/04 06:26:16;;;;;;;3.97;3.08;;;;;;;32.43;38.12;94558.34;4926836;29;20020;-76
2021/07/04 06:28:41;;;;;;;2.95;2.75;;;;;;;32.45;36.76;94555.38;4928455;29;20047;-74
2021/07/04 06:31:07;;;;;;;3.00;2.80;;;;;;;33.12;36.57;94548.31;4928846;29;20042;-76
2021/07/04 06:33:32;;;;;;;4.70;2.90;;;;;;;31.42;38.54;94549.88;4915760;29;20074;-75
2021/07/04 06:35:58;;;;;;;3.83;2.95;;;;;;;33.51;37.08;94546.38;4930722;29;20031;-76
2021/07/04 06:38:24;;;;;;;5.65;3.10;;;;;;;33.24;36.44;94547.63;4930660;29;20379;-76
2021/07/04 06:40:49;;;;;;;3.58;3.10;;;;;;;31.88;36.72;94546.69;4913668;29;20027;-74
2021/07/04 06:43:15;;;;;;;2.90;2.70;;;;;;;29.82;42.63;94543.66;4929691;29;20084;-77
2021/07/04 06:45:40;;;;;;;3.00;2.80;;;;;;;28.33;46.69;94539.00;4927003;29;20095;-76
2021/07/04 06:48:05;;;;;;;3.92;3.25;;;;;;;27.97;46.63;94544.03;4912753;29;20799;-77
2021/07/04 06:50:31;;;;;;;5.35;3.50;;;;;;;27.05;49.04;94525.00;4929675;29;20047;-77
2021/07/04 06:52:56;;;;;;;3.60;3.30;;;;;;;27.87;46.84;94522.91;4929100;29;20031;-75
2021/07/04 06:55:22;;;;;;;3.80;3.50;;;;;;;26.61;49.81;94531.31;4930411;29;20501;-77
2021/07/04 06:57:47;;;;;;;3.75;3.55;;;;;;;30.82;42.49;94523.66;4915054;29;20618;-75
2021/07/04 07:00:14;;;;;;;4.47;4.07;;;;;;;31.33;38.69;94504.31;4929836;29;20074;-75
2021/07/04 07:02:40;;;;;;;3.75;3.40;;;;;;;32.19;37.47;94513.28;4913948;29;20606;-77
2021/07/04 07:05:06;;;;;;;4.00;3.70;;;;;;;32.58;36.97;94523.03;4912870;29;20036;-77
2021/07/04 07:07:32;;;;;;;3.90;3.47;;;;;;;31.76;38.31;94512.44;4914716;29;20046;-77
2021/07/04 07:09:57;;;;;;;6.82;4.38;;;;;;;31.81;38.90;94510.41;4913444;29;20035;-76
2021/07/04 07:12:23;;;;;;;4.03;3.65;;;;;;;27.37;48.73;94495.88;4915062;29;20031;-75
2021/07/04 07:14:48;;;;;;;4.25;3.95;;;;;;;27.93;47.77;94511.09;4914080;29;20059;-76
2021/07/04 07:17:14;;;;;;;4.30;3.67;;;;;;;27.81;48.83;94514.19;4898939;29;20560;-76
2021/07/04 07:19:39;;;;;;;4.53;3.75;;;;;;;26.39;52.20;94509.72;4914626;29;20118;-76
2021/07/04 07:22:06;;;;;;;3.80;3.50;;;;;;;27.90;46.95;94511.69;4914041;29;20038;-75
2021/07/04 07:24:31;;;;;;;5.25;3.70;;;;;;;27.26;48.84;94507.72;4930757;29;20485;-75
2021/07/04 07:26:57;;;;;;;26.92;14.85;;;;;;;27.57;49.79;94505.50;4930126;29;20035;-75
2021/07/04 07:29:23;;;;;;;5.55;5.07;;;;;;;27.41;48.96;94493.44;4914627;29;20062;-77
2021/07/04 07:31:48;;;;;;;6.43;4.53;;;;;;;27.51;50.04;94490.69;4929719;29;20039;-77
2021/07/04 07:34:13;;;;;;;5.95;3.88;;;;;;;28.08;48.18;94502.91;4915241;29;20027;-75
2021/07/04 07:36:39;;;;;;;5.88;3.58;;;;;;;27.98;50.64;94497.69;4930252;29;20034;-77
2021/07/04 07:39:05;;;;;;;8.80;4.55;;;;;;;27.77;50.09;94496.44;4929732;29;20082;-78
2021/07/04 07:41:31;;;;;;;5.05;4.57;;;;;;;26.91;49.72;94492.19;4915369;29;20126;-78
2021/07/04 07:43:56;;;;;;;16.77;8.63;;;;;;;27.62;49.81;94498.22;4913660;29;20031;-75
2021/07/04 07:46:22;;;;;;;4.18;3.88;;;;;;;26.11;50.96;94497.97;4931011;29;20035;-74
2021/07/04 07:48:48;;;;;;;5.90;3.70;;;;;;;26.47;51.87;94497.69;4929703;29;20112;-76
2021/07/04 07:51:14;;;;;;;4.20;3.90;;;;;;;27.55;49.17;94492.47;4930905;29;20027;-75
2021/07/04 07:53:40;;;;;;;3.55;3.28;;;;;;;27.95;47.66;94495.63;4913711;29;20083;-76
2021/07/04 07:56:05;;;;;;;3.65;3.35;;;;;;;27.73;49.43;94485.56;4914823;29;20035;-76
2021/07/04 07:58:31;;;;;;;4.00;3.70;;;;;;;27.73;49.37;94491.69;4914684;28;20063;-77
2021/07/04 08:00:58;;;;;;;4.15;3.75;;;;;;;27.64;48.37;94487.31;4912918;29;20118;-75
2021/07/04 08:03:23;;;;;;;3.95;3.65;;;;;;;28.07;47.42;94480.78;4930378;29;20035;-78
2021/07/04 08:05:49;;;;;;;3.28;2.97;;;;;;;27.70;46.79;94483.47;4929101;29;20054;-78
2021/07/04 08:08:14;;;;;;;4.10;3.70;;;;;;;27.38;48.89;94478.84;4931050;29;20027;-78
2021/07/04 08:10:40;;;;;;;3.63;3.33;;;;;;;27.43;48.51;94470.81;4912672;29;20772;-79
2021/07/04 08:13:05;;;;;;;3.78;3.47;;;;;;;27.44;47.92;94472.41;4914710;29;20417;-77
2021/07/04 08:15:31;;;;;;;7.18;4.45;;;;;;;27.39;47.45;94463.69;4916943;29;20118;-76
2021/07/04 08:17:56;;;;;;;4.43;4.13;;;;;;;27.70;48.79;94468.31;4917617;29;20027;-75
2021/07/04 08:20:22;;;;;;;3.58;3.30;;;;;;;27.98;45.21;94469.19;4917869;29;20039;-78
2021/07/04 08:22:48;;;;;;;3.60;3.30;;;;;;;27.38;48.09;94462.09;4916320;29;20501;-76
2021/07/04 08:25:14;;;;;;;7.40;3.75;;;;;;;27.41;49.13;94458.84;4951054;29;20031;-76
2021/07/04 08:27:40;;;;;;;7.00;4.07;;;;;;;27.90;47.46;94453.09;4916491;29;20035;-76
2021/07/04 08:30:07;;;;;;;5.45;3.25;;;;;;;27.51;47.35;94456.09;4933707;29;20053;-77
2021/07/04 08:32:32;;;;;;;6.43;5.82;;;;;;;27.45;46.31;94447.38;4932632;29;20102;-77
2021/07/04 08:34:58;;;;;;;2.72;2.53;;;;;;;28.06;44.90;94444.56;4917430;29;20564;-77
2021/07/04 08:37:23;;;;;;;3.47;3.17;;;;;;;27.66;46.03;94447.84;4918083;29;20046;-77
2021/07/04 08:39:49;;;;;;;4.75;3.22;;;;;;;27.68;44.22;94445.69;4915509;29;20472;-76
2021/07/04 08:42:14;;;;;;;3.20;2.90;;;;;;;27.09;45.21;94446.25;4918002;29;20035;-80
2021/07/04 08:45:06;;;;;;;4.53;3.05;;;;;;;27.77;46.85;94451.16;4931761;29;20031;-77
2021/07/04 08:47:32;;;;;;;4.57;2.90;;;;;;;27.89;45.03;94451.50;4913449;29;20035;-74
2021/07/04 08:49:57;;;;;;;3.85;3.20;;;;;;;28.03;45.88;94445.13;4932207;29;20114;-77
2021/07/04 08:52:23;;;;;;;3.42;2.80;;;;;;;27.90;48.57;94443.22;4916837;29;20038;-75
2021/07/04 08:54:48;;;;;;;3.88;2.85;;;;;;;27.60;44.94;94443.69;4933407;29;20042;-77
2021/07/04 08:57:16;;;;;;;3.20;2.92;;;;;;;28.31;46.83;94439.91;4932153;29;20696;-76
2021/07/04 08:59:43;;;;;;;3.85;3.00;;;;;;;28.37;44.75;94449.38;4917473;29;20122;-78
2021/07/04 09:02:12;;;;;;;5.13;3.15;;;;;;;28.49;44.21;94444.34;4912522;29;20079;-77
2021/07/04 09:05:01;;;;;;;3.88;3.30;;;;;;;28.40;44.36;94446.13;4930031;29;20135;-74
2021/07/04 09:07:27;;;;;;;3.65;3.00;;;;;;;28.60;45.98;94451.88;4930954;29;20059;-75
2021/07/04 09:09:57;;;;;;;4.25;3.88;;;;;;;28.17;45.91;94447.84;4927904;29;20028;-77
2021/07/04 09:12:34;;;;;;;5.75;3.25;;;;;;;27.74;45.44;94442.66;4930180;29;20028;-78
2021/07/04 09:15:00;;;;;;;3.70;3.40;;;;;;;28.47;44.50;94439.34;4927640;29;20034;-77
2021/07/04 09:17:33;;;;;;;3.67;3.38;;;;;;;27.78;43.21;94429.56;4909825;29;20579;-76
2021/07/04 09:20:00;;;;;;;5.53;3.00;;;;;;;28.67;42.93;94428.28;4929134;29;20123;-76
2021/07/04 09:22:30;;;;;;;5.10;3.30;;;;;;;28.29;43.91;94436.75;4913749;29;20031;-75
2021/07/04 09:25:06;;;;;;;3.28;2.80;;;;;;;27.31;43.37;94432.38;4928911;29;20027;-75
2021/07/04 09:27:31;;;;;;;3.08;2.70;;;;;;;26.85;44.59;94437.50;4928056;29;20036;-79
2021/07/04 09:29:57;;;;;;;3.42;3.22;;;;;;;26.46;45.20;94421.69;4913484;29;20038;-75
2021/07/04 09:32:26;;;;;;;3.90;3.10;;;;;;;27.46;48.62;94432.97;4927630;29;20086;-75
2021/07/04 09:35:18;;;;;;;;;;;;;;;27.90;44.29;94432.59;4929992;29;20035;-75
2021/07/04 09:37:44;;;;;;;3.60;2.70;;;;;;;27.19;45.29;94430.16;4927138;29;20299;-74
2021/07/04 09:40:21;;;;;;;3.03;2.80;;;;;;;26.87;44.73;94422.88;4912265;29;20038;-74
2021/07/04 09:43:06;;;;;;;4.97;2.78;;;;;;;26.44;47.93;94419.34;4929212;29;20114;-77
2021/07/04 09:45:53;;;;;;;3.22;3.00;;;;;;;26.25;46.56;94423.00;4927480;29;20036;-75
2021/07/04 09:48:21;;;;;;;3.72;3.20;;;;;;;26.01;45.96;94422.91;4930556;29;20032;-75
2021/07/04 09:50:51;;;;;;;5.50;3.50;;;;;;;25.81;49.30;94428.41;4927774;29;20098;-75
2021/07/04 09:53:17;;;;;;;3.40;3.08;;;;;;;25.81;50.15;94410.63;4912182;29;20035;-76
2021/07/04 09:55:43;;;;;;;4.70;3.00;;;;;;;26.45;47.72;94423.59;4897376;29;20109;-76
2021/07/04 09:58:12;;;;;;;3.72;2.78;;;;;;;26.75;46.24;94416.34;4911945;29;20024;-76
2021/07/04 10:00:38;;;;;;;;;;;;;;;26.35;48.86;94418.38;4929942;29;20460;-78
2021/07/04 10:03:14;;;;;;;4.80;2.92;;;;;;;27.27;47.90;94421.50;4914740;29;19921;-77
2021/07/04 10:05:53;;;;;;;3.42;3.13;;;;;;;26.87;48.61;94414.09;4931651;29;20042;-75
2021/07/04 10:08:23;;;;;;;5.80;3.08;;;;;;;26.21;47.36;94412.13;4932063;29;20042;-76
2021/07/04 10:10:49;;;;;;;3.65;3.22;;;;;;;26.08;47.99;94407.44;4930186;29;20379;-75
2021/07/04 10:13:16;;;;;;;3.40;3.00;;;;;;;26.11;46.46;94404.25;4931616;29;20067;-77
2021/07/04 10:15:41;;;;;;;4.18;2.40;;;;;;;26.41;45.32;94392.53;4930506;29;20031;-77
2021/07/04 10:18:09;;;;;;;3.15;2.35;;;;;;;26.24;44.25;94395.63;4916208;29;20106;-76
2021/07/04 10:20:35;;;;;;;2.38;2.17;;;;;;;26.47;43.75;94378.91;4914628;29;20024;-81
2021/07/04 10:23:01;;;;;;;3.22;2.30;;;;;;;26.49;44.24;94354.72;4899586;29;20027;-80
2021/07/04 10:25:26;;;;;;;2.20;2.10;;;;;;;26.62;44.60;94394.66;4915743;29;20643;-80
2021/07/04 10:27:52;;;;;;;2.25;2.05;;;;;;;27.07;42.71;94388.00;4914684;29;20019;-77
2021/07/04 10:30:17;;;;;;;4.40;2.03;;;;;;;27.75;41.78;94384.88;4931457;29;20047;-79
2021/07/04 10:33:15;;;;;;;5.53;2.88;;;;;;;27.96;41.44;94383.47;4914256;29;20050;-82
2021/07/04 10:36:12;;;;;;;2.42;2.00;;;;;;;26.87;42.88;94376.88;4931355;29;20039;-79
2021/07/04 10:38:58;;;;;;;6.18;1.65;;;;;;;27.09;42.30;94379.75;4916001;29;20089;-75
2021/07/04 10:41:34;;;;;;;2.08;1.75;;;;;;;27.39;42.71;94373.22;4929752;29;20039;-76
2021/07/04 10:44:04;;;;;;;2.55;2.22;;;;;;;27.06;42.63;94377.66;4915560;29;20027;-74
2021/07/04 10:46:42;;;;;;;3.80;1.80;;;;;;;26.48;44.84;94372.53;4930717;29;20106;-77
2021/07/04 10:49:11;;;;;;;2.20;2.00;;;;;;;26.28;42.65;94375.41;4947155;29;20485;-75
2021/07/04 10:52:11;;;;;;;2.00;1.90;;;;;;;26.59;42.56;94366.00;4931740;29;20031;-78
2021/07/04 10:54:46;;;;;;;2.10;1.90;;;;;;;27.32;41.25;94364.78;4932501;29;20058;-76
2021/07/04 10:57:44;;;;;;;2.72;1.95;;;;;;;27.81;41.49;94349.09;4946126;29;20031;-76
2021/07/04 11:00:09;;;;;;;1.90;1.42;;;;;;;28.22;39.14;94351.88;4902757;29;20047;-79
2021/07/04 11:02:38;;;;;;;1.60;1.50;;;;;;;28.27;39.87;94349.09;4941257;29;20159;-75
2021/07/04 11:05:40;;;;;;;2.13;1.90;;;;;;;27.98;41.68;94330.69;4943722;29;20039;-73
2021/07/04 11:08:10;;;;;;;1.85;1.55;;;;;;;27.93;38.56;94327.34;4928564;29;21117;-75
2021/07/04 11:10:36;;;;;;;1.58;1.40;;;;;;;28.61;38.98;94346.81;4903677;29;20031;-74
2021/07/04 11:13:07;;;;;;;1.98;1.40;;;;;;;27.96;37.15;94329.41;4944342;29;20031;-80
2021/07/04 11:15:33;;;;;;;2.45;1.40;;;;;;;28.57;39.26;94340.50;4922563;29;20119;-75
2021/07/04 11:18:05;;;;;;;3.63;1.75;;;;;;;28.54;38.40;94341.09;4911936;29;20032;-78
2021/07/04 11:20:31;;;;;;;1.55;1.33;;;;;;;28.26;36.09;94334.19;4937225;29;20031;-75
2021/07/04 11:23:01;;;;;;;1.95;1.75;;;;;;;28.31;36.98;94336.75;4920850;29;20028;-74
2021/07/04 11:25:44;;;;;;;7.82;5.68;;;;;;;28.26;39.48;94331.50;4912265;29;20033;-75
2021/07/04 11:28:16;;;;;;;2.53;2.28;;;;;;;28.06;38.08;94334.59;4929996;29;20106;-77
2021/07/04 11:30:51;;;;;;;3.70;3.40;;;;;;;28.25;40.02;94324.63;4921617;29;20048;-75
2021/07/04 11:33:29;;;;;;;4.65;2.50;;;;;;;28.50;39.88;94342.00;4922653;29;20545;-76
2021/07/04 11:36:07;;;;;;;2.72;2.25;;;;;;;28.32;38.49;94337.56;4937115;29;20094;-75
2021/07/04 11:38:36;;;;;;;2.13;1.80;;;;;;;28.27;36.99;94335.78;4941172;29;20034;-74
2021/07/04 11:41:02;;;;;;;3.70;2.00;;;;;;;28.25;38.57;94337.94;4922733;29;20070;-76
2021/07/04 11:43:28;;;;;;;2.00;1.90;;;;;;;28.17;38.65;94328.75;4904797;29;20786;-77
2021/07/04 11:45:54;;;;;;;2.35;1.92;;;;;;;28.09;38.97;94334.00;4911415;29;20027;-75
2021/07/04 11:48:21;;;;;;;1.90;1.80;;;;;;;28.11;38.37;94334.47;4931498;29;20023;-78
2021/07/04 11:50:51;;;;;;;1.52;1.40;;;;;;;28.22;36.60;94333.22;4928254;29;20504;-77
2021/07/04 11:53:16;;;;;;;3.00;1.83;;;;;;;28.09;38.89;94318.81;4927732;29;20113;-77
2021/07/04 11:55:55;;;;;;;3.65;2.30;;;;;;;27.89;39.36;94327.13;4924222;29;20051;-76
2021/07/04 11:58:25;;;;;;;;;;;;;;;27.92;38.08;94339.06;4911211;29;20721;-77
2021/07/04 12:00:50;;;;;;;2.15;2.05;;;;;;;28.02;39.18;94328.22;4931538;29;19922;-75
2021/07/04 12:03:21;;;;;;;2.45;2.25;;;;;;;28.34;38.50;94330.84;4915609;29;20027;-76
2021/07/04 12:05:46;;;;;;;1.83;1.73;;;;;;;28.10;38.07;94319.56;4934138;29;20051;-76
2021/07/04 12:08:12;;;;;;;2.15;1.95;;;;;;;27.76;38.00;94330.56;4916403;29;20023;-73
2021/07/04 12:10:51;;;;;;;2.63;2.10;;;;;;;27.85;40.41;94328.78;4931839;29;20127;-75
2021/07/04 12:13:17;;;;;;;4.70;2.05;;;;;;;28.06;38.51;94318.59;4931946;29;20446;-79
2021/07/04 12:15:48;;;;;;;2.53;1.70;;;;;;;28.21;38.63;94318.31;4900680;29;20066;-76
2021/07/04 12:18:15;;;;;;;2.03;1.90;;;;;;;28.45;38.20;94312.78;4916605;29;20030;-76
2021/07/04 12:20:41;;;;;;;9.43;2.20;;;;;;;28.13;38.34;94311.00;4914060;29;20027;-78
2021/07/04 12:23:09;;;;;;;3.00;2.20;;;;;;;28.15;38.20;94316.81;4920760;29;20437;-77
2021/07/04 12:25:42;;;;;;;3.13;2.10;;;;;;;28.10;38.42;94319.56;4916891;29;20031;-76
2021/07/04 12:28:18;;;;;;;2.30;2.10;;;;;;;27.95;39.49;94306.50;4919520;29;20032;-74
2021/07/04 12:30:45;;;;;;;3.28;2.20;;;;;;;27.89;39.78;94299.72;4913170;29;20679;-77
2021/07/04 12:33:18;;;;;;;2.40;2.30;;;;;;;27.99;40.97;94305.66;4897859;29;20074;-78
2021/07/04 12:36:04;;;;;;;2.85;2.35;;;;;;;27.56;41.06;94304.28;4899306;29;20417;-75
2021/07/04 12:38:42;;;;;;;3.33;2.40;;;;;;;27.96;41.51;94308.09;4883914;29;20028;-77
2021/07/04 12:41:10;;;;;;;2.92;2.00;;;;;;;27.83;40.01;94312.34;4898241;29;20031;-76
2021/07/04 12:43:36;;;;;;;2.80;2.60;;;;;;;27.88;41.69;94304.25;4931433;29;20099;-74
2021/07/04 12:46:04;;;;;;;3.35;1.92;;;;;;;27.71;41.25;94306.66;4930598;29;20179;-76
2021/07/04 12:48:31;;;;;;;5.47;2.25;;;;;;;27.73;40.73;94294.66;4898836;29;20479;-77
2021/07/04 12:51:07;;;;;;;2.72;2.30;;;;;;;27.40;40.18;94301.06;4897072;29;20035;-76
2021/07/04 12:53:43;;;;;;;2.13;2.03;;;;;;;27.48;40.74;94303.09;4883642;29;20174;-75
2021/07/04 12:56:31;;;;;;;2.60;2.10;;;;;;;27.57;40.53;94298.69;4898237;29;20023;-75
2021/07/04 12:59:04;;;;;;;2.42;2.22;;;;;;;27.52;41.11;94266.81;4915523;28;20039;-78
2021/07/04 13:01:33;;;;;;;2.30;2.10;;;;;;;27.66;39.71;94288.13;4914049;29;20050;-75
2021/07/04 13:04:14;;;;;;;2.38;2.25;;;;;;;27.66;40.36;94288.94;4912168;29;20047;-75
2021/07/04 13:07:00;;;;;;;4.25;2.17;;;;;;;27.59;40.26;94288.53;4950339;29;20489;-77
2021/07/04 13:09:36;;;;;;;2.10;2.00;;;;;;;27.64;40.28;94299.09;4934217;29;20477;-76
2021/07/04 13:12:03;;;;;;;2.50;2.33;;;;;;;27.56;40.58;94283.78;4931754;29;20023;-75
2021/07/04 13:14:45;;;;;;;2.08;1.98;;;;;;;27.66;40.76;94291.59;4932789;29;20035;-74
2021/07/04 13:17:31;;;;;;;5.13;2.60;;;;;;;27.66;39.64;94288.94;4948350;29;20031;-75
2021/07/04 13:20:05;;;;;;;2.03;1.90;;;;;;;27.66;40.12;94280.16;4931935;29;20469;-75
2021/07/04 13:22:35;;;;;;;2.67;1.98;;;;;;;27.68;39.35;94283.28;4916559;29;20038;-76
2021/07/04 13:25:21;;;;;;;4.75;1.92;;;;;;;27.60;42.03;94273.34;4912015;29;20020;-75
2021/07/04 13:28:01;;;;;;;2.83;1.85;;;;;;;27.42;40.25;94276.84;4900389;29;20046;-76
2021/07/04 13:30:26;;;;;;;1.55;1.45;;;;;;;27.39;39.10;94294.16;4896606;29;20036;-76
2021/07/04 13:33:02;;;;;;;2.10;2.00;;;;;;;27.55;40.69;94287.50;4904851;29;20105;-76
2021/07/04 13:35:32;;;;;;;3.03;2.10;;;;;;;27.42;41.78;94285.56;4914069;29;20553;-79
2021/07/04 13:38:05;;;;;;;3.58;2.47;;;;;;;27.48;41.32;94287.13;4881625;29;20028;-75
2021/07/04 13:40:30;;;;;;;2.30;2.17;;;;;;;27.61;39.58;94273.03;4897196;29;20580;-77
2021/07/04 13:42:56;;;;;;;2.05;1.95;;;;;;;27.30;39.73;94285.25;4880550;29;20091;-77
2021/07/04 13:45:27;;;;;;;3.53;2.20;;;;;;;27.39;39.66;94280.84;4899789;29;20030;-77
2021/07/04 13:47:59;;;;;;;2.13;1.92;;;;;;;27.42;39.71;94271.50;4912763;29;20033;-78
2021/07/04 13:50:24;;;;;;;3.13;2.20;;;;;;;27.42;39.49;94285.56;4931136;29;20334;-79
2021/07/04 13:52:50;;;;;;;2.40;2.13;;;;;;;27.33;40.45;94282.00;4916205;29;20019;-77
2021/07/04 13:55:15;;;;;;;2.50;2.00;;;;;;;27.26;40.32;94268.28;4915031;29;20023;-80
2021/07/04 13:57:41;;;;;;;2.03;1.80;;;;;;;27.44;40.54;94282.66;4899923;29;20555;-81
2021/07/04 14:00:07;;;;;;;2.10;2.00;;;;;;;27.19;40.52;94282.00;4929871;29;20042;-77
2021/07/04 14:02:33;;;;;;;2.95;2.33;;;;;;;27.28;39.61;94279.44;4900036;29;20075;-81
2021/07/04 14:04:58;;;;;;;1.75;1.65;;;;;;;27.19;40.05;94283.84;4914581;29;20031;-78
2021/07/04 14:07:24;;;;;;;2.55;2.03;;;;;;;27.47;39.29;94293.53;4915665;29;20393;-74
2021/07/04 14:09:49;;;;;;;1.98;1.85;;;;;;;27.41;39.02;94285.88;4930905;29;20039;-81
2021/07/04 14:12:15;;;;;;;3.22;1.80;;;;;;;27.35;37.98;94282.53;4912912;29;20030;-77
2021/07/04 14:14:40;;;;;;;2.08;1.63;;;;;;;27.29;37.07;94270.41;4908154;29;20046;-80
2021/07/04 14:17:06;;;;;;;1.88;1.70;;;;;;;27.51;36.30;94286.53;4922429;29;20707;-77
2021/07/04 14:19:32;;;;;;;1.45;1.35;;;;;;;27.48;36.18;94286.34;4897523;29;20027;-77
2021/07/04 14:21:59;;;;;;;1.80;1.63;;;;;;;27.35;36.54;94271.88;4910449;29;20035;-77
2021/07/04 14:24:24;;;;;;;1.98;1.42;;;;;;;27.31;35.91;94268.22;4925099;29;20035;-77
2021/07/04 14:26:50;;;;;;;2.63;1.85;;;;;;;27.40;37.06;94287.75;4947956;29;20035;-75
2021/07/04 14:29:15;;;;;;;4.55;1.63;;;;;;;27.13;36.68;94269.06;4931110;29;20027;-76
2021/07/04 14:31:41;;;;;;;2.00;1.65;;;;;;;26.92;35.82;94275.75;4915567;29;20027;-76
2021/07/04 14:34:07;;;;;;;3.50;1.80;;;;;;;27.15;35.08;94274.88;4914672;29;20031;-79
2021/07/04 14:36:33;;;;;;;2.95;1.50;;;;;;;27.03;35.53;94274.53;4912453;29;20788;-77
2021/07/04 14:39:02;;;;;;;2.92;1.65;;;;;;;27.00;36.08;94275.13;4920922;29;20031;-77
2021/07/04 14:41:27;;;;;;;2.03;1.50;;;;;;;27.12;36.28;94283.44;4921963;29;20027;-77
2021/07/04 14:43:53;;;;;;;2.17;1.92;;;;;;;27.01;36.14;94272.16;4902504;29;20031;-78
2021/07/04 14:46:18;;;;;;;1.70;1.60;;;;;;;27.06;36.39;94274.75;4899054;29;20027;-77
2021/07/04 14:48:44;;;;;;;1.60;1.50;;;;;;;26.77;36.73;94275.97;4911456;29;20052;-77
2021/07/04 14:51:11;;;;;;;2.13;1.92;;;;;;;27.03;36.26;94254.06;4907517;29;20043;-79
2021/07/04 14:53:40;;;;;;;2.25;1.73;;;;;;;27.11;36.52;94276.53;4915586;29;20050;-79
2021/07/04 14:56:10;;;;;;;4.25;1.88;;;;;;;27.08;36.51;94279.75;4911592;29;20063;-76
2021/07/04 14:58:38;;;;;;;2.10;1.90;;;;;;;26.94;37.54;94278.94;4897301;29;20426;-78
2021/07/04 15:01:04;;;;;;;2.67;2.35;;;;;;;26.97;37.12;94273.78;4884047;29;20041;-76
2021/07/04 15:03:29;;;;;;;1.77;1.67;;;;;;;27.01;37.41;94276.66;4915483;29;20031;-77
2021/07/04 15:05:57;;;;;;;2.17;1.98;;;;;;;26.92;37.71;94276.53;4913051;29;20485;-76
2021/07/04 15:08:23;;;;;;;2.13;2.03;;;;;;;26.83;37.24;94274.84;4914098;29;20031;-76
2021/07/04 15:10:48;;;;;;;7.05;2.00;;;;;;;26.81;36.50;94277.00;4926306;29;20449;-76
2021/07/04 15:13:14;;;;;;;2.78;1.83;;;;;;;26.84;37.51;94271.91;4928651;29;20028;-76
2021/07/04 15:15:39;;;;;;;3.90;2.20;;;;;;;26.60;37.25;94269.28;4915239;29;20485;-75
2021/07/04 15:18:04;;;;;;;2.63;1.58;;;;;;;26.64;37.93;94275.59;4914113;29;20405;-76
2021/07/04 15:20:30;;;;;;;2.30;2.20;;;;;;;26.61;37.71;94283.34;4914715;29;20460;-79
2021/07/04 15:22:58;;;;;;;3.28;2.00;;;;;;;26.60;38.08;94277.25;4914889;29;20039;-78
2021/07/04 15:25:23;;;;;;;2.83;2.13;;;;;;;26.40;38.44;94272.19;4934516;29;20024;-79
2021/07/04 15:27:49;;;;;;;1.80;1.70;;;;;;;26.39;37.91;94270.63;4917851;29;20386;-77
2021/07/04 15:32:50;;;;;;;2.33;2.22;;;;;;;26.32;37.77;94272.84;5224241;23;20055;-80
2021/07/04 15:35:15;;;;;;;2.17;1.92;;;;;;;26.40;38.91;94277.50;4940715;28;20035;-77
2021/07/04 15:37:41;;;;;;;2.05;1.88;;;;;;;26.42;39.09;94279.91;4986478;28;20034;-77
2021/07/04 15:40:07;;;;;;;1.98;1.88;;;;;;;26.30;39.35;94296.22;4962216;28;20093;-75
2021/07/04 15:42:32;;;;;;;2.20;2.00;;;;;;;26.35;38.44;94284.75;4958932;28;20023;-78
2021/07/04 15:44:58;;;;;;;9.73;2.40;;;;;;;26.25;38.50;94284.88;4947889;28;20467;-78
2021/07/04 15:47:24;;;;;;;3.88;2.30;;;;;;;26.40;38.34;94292.66;4944791;28;20022;-78
2021/07/04 15:49:49;;;;;;;1.90;1.80;;;;;;;26.28;38.96;94293.06;4945850;29;20027;-76
2021/07/04 15:52:15;;;;;;;2.40;2.15;;;;;;;26.25;39.52;94290.19;4951543;28;20027;-77
2021/07/04 15:54:40;;;;;;;2.63;2.42;;;;;;;26.18;39.05;94285.22;4953024;28;20118;-77
2021/07/04 15:57:13;;;;;;;2.15;2.03;;;;;;;26.04;40.07;94279.78;4951472;28;20477;-77
2021/07/04 15:59:42;;;;;;;2.90;2.45;;;;;;;26.05;39.98;94286.66;4951641;28;20070;-76
2021/07/04 16:02:07;;;;;;;;;;;;;;;26.08;39.17;94275.47;4952461;28;20129;-76
2021/07/04 16:04:34;;;;;;;2.88;2.28;;;;;;;25.99;40.29;94287.00;4951798;28;20454;-77
2021/07/04 16:06:59;;;;;;;2.15;1.98;;;;;;;25.87;40.85;94282.09;4952170;28;20575;-76
2021/07/04 16:09:25;;;;;;;2.22;2.03;;;;;;;25.99;39.58;94293.13;4950831;28;20031;-77
2021/07/04 16:11:50;;;;;;;2.40;2.20;;;;;;;25.89;41.25;94292.44;4952272;28;20038;-76
2021/07/04 16:14:16;;;;;;;2.50;2.40;;;;;;;25.91;40.59;94288.41;4969147;28;20042;-77
2021/07/04 16:16:41;;;;;;;2.63;2.28;;;;;;;25.77;40.96;94292.03;4971424;28;20055;-75
2021/07/04 16:19:07;;;;;;;2.15;2.05;;;;;;;25.63;41.35;94290.03;4970580;28;20030;-75
2021/07/04 16:21:32;;;;;;;2.70;2.50;;;;;;;25.72;39.52;94292.84;4970777;28;20045;-76
2021/07/04 16:23:58;;;;;;;2.47;2.30;;;;;;;25.58;40.74;94291.97;4971552;28;20039;-77
2021/07/04 16:26:23;;;;;;;2.20;2.10;;;;;;;25.52;40.51;94288.56;4970180;28;20071;-76
2021/07/04 16:28:49;;;;;;;2.33;2.20;;;;;;;25.45;41.52;94297.88;4971302;28;20037;-76
2021/07/04 16:31:15;;;;;;;4.50;2.60;;;;;;;25.26;42.42;94283.72;4965943;28;20097;-79
2021/07/04 16:33:40;;;;;;;2.60;2.50;;;;;;;25.36;42.39;94295.06;4941457;29;20613;-75
2021/07/04 16:36:06;;;;;;;2.60;2.40;;;;;;;25.10;42.45;94297.13;4920401;29;20082;-78
2021/07/04 16:38:31;;;;;;;2.60;2.40;;;;;;;25.08;42.68;94288.63;4926916;29;20039;-77
2021/07/04 16:40:57;;;;;;;2.97;2.70;;;;;;;24.82;43.83;94287.22;4932173;29;20043;-77
2021/07/04 16:43:22;;;;;;;2.92;2.63;;;;;;;24.69;43.96;94292.34;4932056;29;20027;-76